CG Heron — NHRN — position and weather

sailwx.info

Track history (hours):
 
Tides and Currents Weather Stations Pressure Air Temp Water Temp Dewpoint Dewpoint Depression Visibility Wind Speed Wind Dir Waves Ship Positions

CG Heron

Last reported at 2018-May-07 16:44 UTC. Time now 2018-May-22 10:00 UTC.
Position N 36°58' W 076°09'.
Warning: this ship's position is 14 days out of date.

Length 26 m; draft 1.7 m.

Type: Law enforcement. MMSI: 366999664.

Date/timePositionNaut miles runAvg speedWind from/ knotsBaromVisibWave heightAir tempDewpointWater temp
2018-May-07 16:44N 36°58' W 076°09'311.6
2018-May-07 16:30N 36°58' W 076°05'917.9
2018-May-07 16:00N 36°53' W 075°56'148 6.8
2018-May-06 18:16N 34°27' W 076°31'412.6
2018-May-06 18:00N 34°30' W 076°33'713.5
2018-May-06 17:30N 34°36' W 076°37'510.8
2018-May-06 17:00N 34°40' W 076°40'2 3.7
2018-May-06 16:30N 34°42' W 076°41'0 0.0
2018-May-06 16:00N 34°42' W 076°41'0 0.0
2018-May-06 15:30N 34°42' W 076°41'2 4.0
2018-May-06 15:00N 34°40' W 076°40'5 9.6
2018-May-06 14:30N 34°38' W 076°35'2 3.8
2018-May-06 14:00N 34°37' W 076°33'0 0.0
2018-May-06 13:30N 34°37' W 076°33'0 0.0
2018-May-06 13:00N 34°37' W 076°33'0 0.0
2018-May-06 12:30N 34°37' W 076°33'0 0.0
2018-May-06 12:00N 34°37' W 076°33'0 0.0
2018-May-06 11:30N 34°37' W 076°33'0 0.0
2018-May-06 11:00N 34°37' W 076°33'0 0.0
2018-May-06 10:30N 34°37' W 076°33'0 0.0
2018-May-06 10:00N 34°37' W 076°33'0 0.0
2018-May-06 09:30N 34°37' W 076°33'0 0.0
2018-May-06 09:00N 34°37' W 076°33'0 0.0
2018-May-06 08:30N 34°37' W 076°33'0 0.0
2018-May-06 08:00N 34°37' W 076°33'0 0.0
2018-May-06 07:30N 34°37' W 076°33'0 0.0
2018-May-06 07:00N 34°37' W 076°33'0 0.0
2018-May-06 06:30N 34°37' W 076°33'0 0.0
2018-May-06 06:00N 34°37' W 076°33'0 0.0
2018-May-06 05:30N 34°37' W 076°33'0 0.0
2018-May-06 05:00N 34°37' W 076°33'0 0.0
2018-May-06 04:30N 34°37' W 076°33'0 0.0
2018-May-06 04:00N 34°37' W 076°33'0 0.0
2018-May-06 03:30N 34°37' W 076°33'0 0.0
2018-May-06 03:00N 34°37' W 076°33'0 0.0
2018-May-06 02:30N 34°37' W 076°33'0 0.0
2018-May-06 02:00N 34°37' W 076°33'0 0.0
2018-May-06 01:30N 34°37' W 076°33'0 0.0
2018-May-06 01:00N 34°37' W 076°33'0 0.0
2018-May-06 00:30N 34°37' W 076°33'0 0.0
2018-May-06 00:00N 34°37' W 076°33'0 0.0
2018-May-05 23:30N 34°37' W 076°33'0 0.0
2018-May-05 23:00N 34°37' W 076°33'1 2.0
2018-May-05 22:30N 34°38' W 076°33'3 6.6
2018-May-05 22:00N 34°38' W 076°37'1 2.3
2018-May-05 21:30N 34°39' W 076°36'1 1.7
2018-May-05 21:00N 34°39' W 076°37'1 2.6
2018-May-05 20:30N 34°38' W 076°36'1 2.5
2018-May-05 20:00N 34°38' W 076°34'510.4
2018-May-05 19:30N 34°39' W 076°40'3 5.7
2018-May-05 19:00N 34°42' W 076°41'0 0.0
2018-May-05 18:30N 34°42' W 076°41'0 0.0
2018-May-05 17:59N 34°42' W 076°41'0 0.0
2018-May-05 17:30N 34°42' W 076°41'4 7.5
2018-May-05 17:00N 34°39' W 076°38'5 9.5
2018-May-05 16:30N 34°38' W 076°33'0 0.5
2018-May-05 16:00N 34°37' W 076°33'0 0.0
2018-May-05 15:30N 34°37' W 076°33'0 0.0
2018-May-05 15:00N 34°37' W 076°33'0 0.0
2018-May-05 14:30N 34°37' W 076°33'0 0.0
2018-May-05 14:00N 34°37' W 076°33'0 0.0
2018-May-05 13:30N 34°37' W 076°33'0 0.0
2018-May-05 13:00N 34°37' W 076°33'0 0.0
2018-May-05 12:30N 34°37' W 076°33'0 0.0
2018-May-05 12:00N 34°37' W 076°33'0 0.0
2018-May-05 11:30N 34°37' W 076°33'0 0.0
2018-May-05 11:00N 34°37' W 076°33'0 0.0
2018-May-05 10:30N 34°37' W 076°33'0 0.0
2018-May-05 10:00N 34°37' W 076°33'0 0.0
2018-May-05 09:30N 34°37' W 076°33'0 0.0
2018-May-05 09:00N 34°37' W 076°33'0 0.0
2018-May-05 08:30N 34°37' W 076°33'0 0.0
2018-May-05 08:00N 34°37' W 076°33'0 0.0
2018-May-05 07:30N 34°37' W 076°33'0 0.0
2018-May-05 07:00N 34°37' W 076°33'0 0.0
2018-May-05 06:30N 34°37' W 076°33'0 0.0
2018-May-05 06:00N 34°37' W 076°33'0 0.0
2018-May-05 05:30N 34°37' W 076°33'0 0.0
2018-May-05 05:00N 34°37' W 076°33'0 0.0
2018-May-05 04:30N 34°37' W 076°33'0 0.0
2018-May-05 04:00N 34°37' W 076°33'0 0.0
2018-May-05 03:30N 34°37' W 076°33'0 0.0
2018-May-05 03:00N 34°37' W 076°33'0 0.0
2018-May-05 02:30N 34°37' W 076°33'0 0.0
2018-May-05 02:00N 34°37' W 076°33'0 0.0
2018-May-05 01:30N 34°37' W 076°33'0 0.0
2018-May-05 01:00N 34°37' W 076°33'0 0.0
2018-May-05 00:30N 34°37' W 076°33'0 0.0
2018-May-05 00:00N 34°37' W 076°33'0 0.2
2018-May-04 23:30N 34°38' W 076°33'3 5.2
2018-May-04 23:00N 34°35' W 076°35'5 9.3
2018-May-04 22:30N 34°31' W 076°33'5 9.4
2018-May-04 22:00N 34°27' W 076°31'  
2018-Apr-29 13:20N 34°32' W 076°45'310.3
2018-Apr-29 13:01N 34°33' W 076°41'510.6
2018-Apr-29 12:31N 34°37' W 076°36'3 6.1
2018-Apr-29 12:01N 34°37' W 076°33'0 0.0
2018-Apr-29 11:29N 34°37' W 076°33'0 0.0
2018-Apr-29 10:59N 34°37' W 076°33'0 0.0
2018-Apr-29 10:29N 34°37' W 076°33'0 0.0
2018-Apr-29 09:59N 34°37' W 076°33'0 0.0
2018-Apr-29 09:29N 34°37' W 076°33'0 0.0
2018-Apr-29 08:59N 34°37' W 076°33'0 0.0
2018-Apr-29 08:29N 34°37' W 076°33'0 0.0
2018-Apr-29 07:59N 34°37' W 076°33'0 0.0
2018-Apr-29 07:29N 34°37' W 076°33'0 0.0
2018-Apr-29 06:56N 34°37' W 076°33'0 0.0
2018-Apr-29 06:29N 34°37' W 076°33'0 0.0
2018-Apr-29 05:50N 34°37' W 076°33'0 0.0
2018-Apr-29 05:29N 34°37' W 076°33'0 0.0
2018-Apr-29 04:41N 34°37' W 076°33'0 0.0
2018-Apr-29 04:23N 34°37' W 076°33'0 0.0
2018-Apr-29 03:57N 34°37' W 076°33'0 0.0
2018-Apr-29 03:26N 34°37' W 076°33'0 0.0
2018-Apr-29 02:59N 34°37' W 076°33'0 0.0
2018-Apr-29 02:29N 34°37' W 076°33'0 0.0
2018-Apr-29 01:59N 34°37' W 076°33'0 0.0
2018-Apr-29 01:29N 34°37' W 076°33'0 0.0
2018-Apr-29 00:59N 34°37' W 076°33'0 0.0
2018-Apr-29 00:29N 34°37' W 076°33'1 2.2
2018-Apr-29 00:00N 34°38' W 076°33'4 8.8
2018-Apr-28 23:30N 34°34' W 076°35'5 9.7
2018-Apr-28 22:58N 34°30' W 076°32'911.5
2018-Apr-28 22:13N 34°23' W 076°26'512.7
2018-Apr-28 21:50N 34°19' W 076°23'4 0.4
2018-Apr-28 12:50N 34°19' W 076°28'617.9
2018-Apr-28 12:30N 34°24' W 076°32'611.0
2018-Apr-28 11:58N 34°29' W 076°35'510.2
2018-Apr-28 11:30N 34°34' W 076°36'4 9.0
2018-Apr-28 11:00N 34°38' W 076°34'1 2.7
2018-Apr-28 10:30N 34°37' W 076°33'0 0.0
2018-Apr-28 10:00N 34°37' W 076°33'0 0.0
2018-Apr-28 09:29N 34°37' W 076°33'0 0.0
2018-Apr-28 09:00N 34°37' W 076°33'0 0.0
2018-Apr-28 08:30N 34°37' W 076°33'0 0.0
2018-Apr-28 08:00N 34°37' W 076°33'0 0.0
2018-Apr-28 07:30N 34°37' W 076°33'0 0.0
2018-Apr-28 07:00N 34°37' W 076°33'0 0.1
2018-Apr-28 06:30N 34°37' W 076°33'0 0.0
2018-Apr-28 05:58N 34°37' W 076°33'0 0.0
2018-Apr-28 05:23N 34°37' W 076°33'0 0.0
2018-Apr-28 04:59N 34°37' W 076°33'0 0.0
2018-Apr-28 04:11N 34°37' W 076°33'0 0.0
2018-Apr-28 03:46N 34°37' W 076°33'0 0.0
2018-Apr-28 03:30N 34°37' W 076°33'0 0.0
2018-Apr-28 02:59N 34°37' W 076°33'0 0.0
2018-Apr-28 02:30N 34°37' W 076°33'0 0.0
2018-Apr-28 02:00N 34°37' W 076°33'0 0.0
2018-Apr-28 01:30N 34°37' W 076°33'0 0.0
2018-Apr-28 01:00N 34°37' W 076°33'0 0.0
2018-Apr-28 00:30N 34°37' W 076°33'0 0.0
2018-Apr-28 00:00N 34°37' W 076°33'0 0.0
2018-Apr-27 23:30N 34°37' W 076°33'2 4.7
2018-Apr-27 23:01N 34°38' W 076°35'5 9.0
2018-Apr-27 22:30N 34°41' W 076°40'1 2.6
2018-Apr-27 22:00N 34°42' W 076°41'0 0.0
2018-Apr-27 21:30N 34°42' W 076°41'0 0.0
2018-Apr-27 21:00N 34°42' W 076°41'0 0.0
2018-Apr-27 20:30N 34°42' W 076°41'0 0.0
2018-Apr-27 20:00N 34°42' W 076°41'0 0.0
2018-Apr-27 19:30N 34°42' W 076°41'3 5.9
2018-Apr-27 19:00N 34°39' W 076°40'3 5.7
2018-Apr-27 18:30N 34°39' W 076°37'2 3.7
2018-Apr-27 18:00N 34°39' W 076°39'4 7.4
2018-Apr-27 17:31N 34°38' W 076°35'5 9.6
2018-Apr-27 17:00N 34°34' W 076°38'  
Track history (hours):
 
Tides and Currents Weather Stations Pressure Air Temp Water Temp Dewpoint Dewpoint Depression Visibility Wind Speed Wind Dir Waves Ship Positions

CG Heron

Last reported at 2018-May-07 16:44 UTC. Time now 2018-May-22 10:00 UTC.
Position N 36°58' W 076°09'.
Warning: this ship's position is 14 days out of date.

Length 26 m; draft 1.7 m.

Type: Law enforcement. MMSI: 366999664.

Date/timePositionNaut miles runAvg speedWind from/ knotsBaromVisibWave heightAir tempDewpointWater temp
2018-May-07 16:44N 36°58' W 076°09'311.6
2018-May-07 16:30N 36°58' W 076°05'917.9
2018-May-07 16:00N 36°53' W 075°56'148 6.8
2018-May-06 18:16N 34°27' W 076°31'412.6
2018-May-06 18:00N 34°30' W 076°33'713.5
2018-May-06 17:30N 34°36' W 076°37'510.8
2018-May-06 17:00N 34°40' W 076°40'2 3.7
2018-May-06 16:30N 34°42' W 076°41'0 0.0
2018-May-06 16:00N 34°42' W 076°41'0 0.0
2018-May-06 15:30N 34°42' W 076°41'2 4.0
2018-May-06 15:00N 34°40' W 076°40'5 9.6
2018-May-06 14:30N 34°38' W 076°35'2 3.8
2018-May-06 14:00N 34°37' W 076°33'0 0.0
2018-May-06 13:30N 34°37' W 076°33'0 0.0
2018-May-06 13:00N 34°37' W 076°33'0 0.0
2018-May-06 12:30N 34°37' W 076°33'0 0.0
2018-May-06 12:00N 34°37' W 076°33'0 0.0
2018-May-06 11:30N 34°37' W 076°33'0 0.0
2018-May-06 11:00N 34°37' W 076°33'0 0.0
2018-May-06 10:30N 34°37' W 076°33'0 0.0
2018-May-06 10:00N 34°37' W 076°33'0 0.0
2018-May-06 09:30N 34°37' W 076°33'0 0.0
2018-May-06 09:00N 34°37' W 076°33'0 0.0
2018-May-06 08:30N 34°37' W 076°33'0 0.0
2018-May-06 08:00N 34°37' W 076°33'0 0.0
2018-May-06 07:30N 34°37' W 076°33'0 0.0
2018-May-06 07:00N 34°37' W 076°33'0 0.0
2018-May-06 06:30N 34°37' W 076°33'0 0.0
2018-May-06 06:00N 34°37' W 076°33'0 0.0
2018-May-06 05:30N 34°37' W 076°33'0 0.0
2018-May-06 05:00N 34°37' W 076°33'0 0.0
2018-May-06 04:30N 34°37' W 076°33'0 0.0
2018-May-06 04:00N 34°37' W 076°33'0 0.0
2018-May-06 03:30N 34°37' W 076°33'0 0.0
2018-May-06 03:00N 34°37' W 076°33'0 0.0
2018-May-06 02:30N 34°37' W 076°33'0 0.0
2018-May-06 02:00N 34°37' W 076°33'0 0.0
2018-May-06 01:30N 34°37' W 076°33'0 0.0
2018-May-06 01:00N 34°37' W 076°33'0 0.0
2018-May-06 00:30N 34°37' W 076°33'0 0.0
2018-May-06 00:00N 34°37' W 076°33'0 0.0
2018-May-05 23:30N 34°37' W 076°33'0 0.0
2018-May-05 23:00N 34°37' W 076°33'1 2.0
2018-May-05 22:30N 34°38' W 076°33'3 6.6
2018-May-05 22:00N 34°38' W 076°37'1 2.3
2018-May-05 21:30N 34°39' W 076°36'1 1.7
2018-May-05 21:00N 34°39' W 076°37'1 2.6
2018-May-05 20:30N 34°38' W 076°36'1 2.5
2018-May-05 20:00N 34°38' W 076°34'510.4
2018-May-05 19:30N 34°39' W 076°40'3 5.7
2018-May-05 19:00N 34°42' W 076°41'0 0.0
2018-May-05 18:30N 34°42' W 076°41'0 0.0
2018-May-05 17:59N 34°42' W 076°41'0 0.0
2018-May-05 17:30N 34°42' W 076°41'4 7.5
2018-May-05 17:00N 34°39' W 076°38'5 9.5
2018-May-05 16:30N 34°38' W 076°33'0 0.5
2018-May-05 16:00N 34°37' W 076°33'0 0.0
2018-May-05 15:30N 34°37' W 076°33'0 0.0
2018-May-05 15:00N 34°37' W 076°33'0 0.0
2018-May-05 14:30N 34°37' W 076°33'0 0.0
2018-May-05 14:00N 34°37' W 076°33'0 0.0
2018-May-05 13:30N 34°37' W 076°33'0 0.0
2018-May-05 13:00N 34°37' W 076°33'0 0.0
2018-May-05 12:30N 34°37' W 076°33'0 0.0
2018-May-05 12:00N 34°37' W 076°33'0 0.0
2018-May-05 11:30N 34°37' W 076°33'0 0.0
2018-May-05 11:00N 34°37' W 076°33'0 0.0
2018-May-05 10:30N 34°37' W 076°33'0 0.0
2018-May-05 10:00N 34°37' W 076°33'0 0.0
2018-May-05 09:30N 34°37' W 076°33'0 0.0
2018-May-05 09:00N 34°37' W 076°33'0 0.0
2018-May-05 08:30N 34°37' W 076°33'0 0.0
2018-May-05 08:00N 34°37' W 076°33'0 0.0
2018-May-05 07:30N 34°37' W 076°33'0 0.0
2018-May-05 07:00N 34°37' W 076°33'0 0.0
2018-May-05 06:30N 34°37' W 076°33'0 0.0
2018-May-05 06:00N 34°37' W 076°33'0 0.0
2018-May-05 05:30N 34°37' W 076°33'0 0.0
2018-May-05 05:00N 34°37' W 076°33'0 0.0
2018-May-05 04:30N 34°37' W 076°33'0 0.0
2018-May-05 04:00N 34°37' W 076°33'0 0.0
2018-May-05 03:30N 34°37' W 076°33'0 0.0
2018-May-05 03:00N 34°37' W 076°33'0 0.0
2018-May-05 02:30N 34°37' W 076°33'0 0.0
2018-May-05 02:00N 34°37' W 076°33'0 0.0
2018-May-05 01:30N 34°37' W 076°33'0 0.0
2018-May-05 01:00N 34°37' W 076°33'0 0.0
2018-May-05 00:30N 34°37' W 076°33'0 0.0
2018-May-05 00:00N 34°37' W 076°33'0 0.2
2018-May-04 23:30N 34°38' W 076°33'3 5.2
2018-May-04 23:00N 34°35' W 076°35'5 9.3
2018-May-04 22:30N 34°31' W 076°33'5 9.4
2018-May-04 22:00N 34°27' W 076°31'  
2018-Apr-29 13:20N 34°32' W 076°45'310.3
2018-Apr-29 13:01N 34°33' W 076°41'510.6
2018-Apr-29 12:31N 34°37' W 076°36'3 6.1
2018-Apr-29 12:01N 34°37' W 076°33'0 0.0
2018-Apr-29 11:29N 34°37' W 076°33'0 0.0
2018-Apr-29 10:59N 34°37' W 076°33'0 0.0
2018-Apr-29 10:29N 34°37' W 076°33'0 0.0
2018-Apr-29 09:59N 34°37' W 076°33'0 0.0
2018-Apr-29 09:29N 34°37' W 076°33'0 0.0
2018-Apr-29 08:59N 34°37' W 076°33'0 0.0
2018-Apr-29 08:29N 34°37' W 076°33'0 0.0
2018-Apr-29 07:59N 34°37' W 076°33'0 0.0
2018-Apr-29 07:29N 34°37' W 076°33'0 0.0
2018-Apr-29 06:56N 34°37' W 076°33'0 0.0
2018-Apr-29 06:29N 34°37' W 076°33'0 0.0
2018-Apr-29 05:50N 34°37' W 076°33'0 0.0
2018-Apr-29 05:29N 34°37' W 076°33'0 0.0
2018-Apr-29 04:41N 34°37' W 076°33'0 0.0
2018-Apr-29 04:23N 34°37' W 076°33'0 0.0
2018-Apr-29 03:57N 34°37' W 076°33'0 0.0
2018-Apr-29 03:26N 34°37' W 076°33'0 0.0
2018-Apr-29 02:59N 34°37' W 076°33'0 0.0
2018-Apr-29 02:29N 34°37' W 076°33'0 0.0
2018-Apr-29 01:59N 34°37' W 076°33'0 0.0
2018-Apr-29 01:29N 34°37' W 076°33'0 0.0
2018-Apr-29 00:59N 34°37' W 076°33'0 0.0
2018-Apr-29 00:29N 34°37' W 076°33'1 2.2
2018-Apr-29 00:00N 34°38' W 076°33'4 8.8
2018-Apr-28 23:30N 34°34' W 076°35'5 9.7
2018-Apr-28 22:58N 34°30' W 076°32'911.5
2018-Apr-28 22:13N 34°23' W 076°26'512.7
2018-Apr-28 21:50N 34°19' W 076°23'4 0.4
2018-Apr-28 12:50N 34°19' W 076°28'617.9
2018-Apr-28 12:30N 34°24' W 076°32'611.0
2018-Apr-28 11:58N 34°29' W 076°35'510.2
2018-Apr-28 11:30N 34°34' W 076°36'4 9.0
2018-Apr-28 11:00N 34°38' W 076°34'1 2.7
2018-Apr-28 10:30N 34°37' W 076°33'0 0.0
2018-Apr-28 10:00N 34°37' W 076°33'0 0.0
2018-Apr-28 09:29N 34°37' W 076°33'0 0.0
2018-Apr-28 09:00N 34°37' W 076°33'0 0.0
2018-Apr-28 08:30N 34°37' W 076°33'0 0.0
2018-Apr-28 08:00N 34°37' W 076°33'0 0.0
2018-Apr-28 07:30N 34°37' W 076°33'0 0.0
2018-Apr-28 07:00N 34°37' W 076°33'0 0.1
2018-Apr-28 06:30N 34°37' W 076°33'0 0.0
2018-Apr-28 05:58N 34°37' W 076°33'0 0.0
2018-Apr-28 05:23N 34°37' W 076°33'0 0.0
2018-Apr-28 04:59N 34°37' W 076°33'0 0.0
2018-Apr-28 04:11N 34°37' W 076°33'0 0.0
2018-Apr-28 03:46N 34°37' W 076°33'0 0.0
2018-Apr-28 03:30N 34°37' W 076°33'0 0.0
2018-Apr-28 02:59N 34°37' W 076°33'0 0.0
2018-Apr-28 02:30N 34°37' W 076°33'0 0.0
2018-Apr-28 02:00N 34°37' W 076°33'0 0.0
2018-Apr-28 01:30N 34°37' W 076°33'0 0.0
2018-Apr-28 01:00N 34°37' W 076°33'0 0.0
2018-Apr-28 00:30N 34°37' W 076°33'0 0.0
2018-Apr-28 00:00N 34°37' W 076°33'0 0.0
2018-Apr-27 23:30N 34°37' W 076°33'2 4.7
2018-Apr-27 23:01N 34°38' W 076°35'5 9.0
2018-Apr-27 22:30N 34°41' W 076°40'1 2.6
2018-Apr-27 22:00N 34°42' W 076°41'0 0.0
2018-Apr-27 21:30N 34°42' W 076°41'0 0.0
2018-Apr-27 21:00N 34°42' W 076°41'0 0.0
2018-Apr-27 20:30N 34°42' W 076°41'0 0.0
2018-Apr-27 20:00N 34°42' W 076°41'0 0.0
2018-Apr-27 19:30N 34°42' W 076°41'3 5.9
2018-Apr-27 19:00N 34°39' W 076°40'3 5.7
2018-Apr-27 18:30N 34°39' W 076°37'2 3.7
2018-Apr-27 18:00N 34°39' W 076°39'4 7.4
2018-Apr-27 17:31N 34°38' W 076°35'5 9.6
2018-Apr-27 17:00N 34°34' W 076°38'  

Dump ship's entire track history